createdAt,value
2018-06-07T00:00:30.757Z,1003.15
2018-06-07T00:01:30.764Z,1003.19
2018-06-07T00:02:30.766Z,1003.20
2018-06-07T00:03:30.773Z,1003.20
2018-06-07T00:04:30.783Z,1003.22
2018-06-07T00:05:30.785Z,1003.20
2018-06-07T00:06:30.790Z,1003.18
2018-06-07T00:07:30.797Z,1003.19
2018-06-07T00:08:30.802Z,1003.19
2018-06-07T00:09:30.806Z,1003.15
2018-06-07T00:10:30.814Z,1003.17
2018-06-07T00:11:30.818Z,1003.17
2018-06-07T00:12:30.823Z,1003.16
2018-06-07T00:13:30.829Z,1003.19
2018-06-07T00:14:30.834Z,1003.21
2018-06-07T00:15:30.841Z,1003.15
2018-06-07T00:16:30.846Z,1003.18
2018-06-07T00:17:30.852Z,1003.19
2018-06-07T00:18:30.857Z,1003.16
2018-06-07T00:19:30.868Z,1003.18
2018-06-07T00:20:30.868Z,1003.20
2018-06-07T00:21:30.875Z,1003.15
2018-06-07T00:22:30.883Z,1003.18
2018-06-07T00:23:30.893Z,1003.21
2018-06-07T00:24:30.890Z,1003.19
2018-06-07T00:25:30.897Z,1003.16
2018-06-07T00:26:30.904Z,1003.20
2018-06-07T00:27:30.909Z,1003.20
2018-06-07T00:28:30.914Z,1003.22
2018-06-07T00:29:30.919Z,1003.20
2018-06-07T00:30:30.925Z,1003.18
2018-06-07T00:31:30.931Z,1003.25
2018-06-07T00:32:30.935Z,1003.22
2018-06-07T00:33:30.941Z,1003.21
2018-06-07T00:34:30.948Z,1003.21
2018-06-07T00:35:30.955Z,1003.24
2018-06-07T00:36:30.958Z,1003.20
2018-06-07T00:37:30.964Z,1003.26
2018-06-07T00:38:30.969Z,1003.25
2018-06-07T00:39:30.975Z,1003.26
2018-06-07T00:40:30.986Z,1003.23
2018-06-07T00:41:30.988Z,1003.25
2018-06-07T00:42:30.991Z,1003.22
2018-06-07T00:43:31.002Z,1003.23
2018-06-07T00:44:31.003Z,1003.20
2018-06-07T00:45:31.011Z,1003.17
2018-06-07T00:46:31.013Z,1003.19
2018-06-07T00:47:31.020Z,1003.13
2018-06-07T00:48:31.025Z,1003.17
2018-06-07T00:49:31.030Z,1003.16
2018-06-07T00:50:31.036Z,1003.17
2018-06-07T00:51:31.042Z,1003.17
2018-06-07T00:52:31.046Z,1003.17
2018-06-07T00:53:31.053Z,1003.20
2018-06-07T00:54:31.058Z,1003.17
2018-06-07T00:55:31.065Z,1003.21
2018-06-07T00:56:31.069Z,1003.22
2018-06-07T00:57:31.074Z,1003.20
2018-06-07T00:58:31.080Z,1003.21
2018-06-07T00:59:31.085Z,1003.22
2018-06-07T01:00:31.091Z,1003.24
2018-06-07T01:01:31.096Z,1003.25
2018-06-07T01:02:31.102Z,1003.24
2018-06-07T01:03:31.107Z,1003.24
2018-06-07T01:04:31.111Z,1003.28
2018-06-07T01:05:31.117Z,1003.27
2018-06-07T01:06:31.124Z,1003.25
2018-06-07T01:07:31.128Z,1003.27
2018-06-07T01:08:31.133Z,1003.25
2018-06-07T01:09:31.139Z,1003.24
2018-06-07T01:10:31.144Z,1003.27
2018-06-07T01:11:31.152Z,1003.25
2018-06-07T01:12:31.156Z,1003.27
2018-06-07T01:13:31.159Z,1003.30
2018-06-07T01:14:31.167Z,1003.29
2018-06-07T01:15:31.170Z,1003.24
2018-06-07T01:16:31.175Z,1003.29
2018-06-07T01:17:31.190Z,1003.26
2018-06-07T01:18:31.185Z,1003.27
2018-06-07T01:19:31.193Z,1003.25
2018-06-07T01:20:31.198Z,1003.28
2018-06-07T01:21:31.202Z,1003.30
2018-06-07T01:22:31.207Z,1003.28
2018-06-07T01:23:31.214Z,1003.30
2018-06-07T01:24:31.216Z,1003.28
2018-06-07T01:25:31.221Z,1003.31
2018-06-07T01:26:31.227Z,1003.31
2018-06-07T01:27:31.236Z,1003.33
2018-06-07T01:28:31.237Z,1003.29
2018-06-07T01:29:31.242Z,1003.33
2018-06-07T01:30:31.247Z,1003.33
2018-06-07T01:31:31.252Z,1003.40
2018-06-07T01:32:31.258Z,1003.36
2018-06-07T01:33:31.263Z,1003.40
2018-06-07T01:34:31.268Z,1003.38
2018-06-07T01:35:31.274Z,1003.39
2018-06-07T01:36:31.278Z,1003.39
2018-06-07T01:37:31.283Z,1003.40
2018-06-07T01:38:31.289Z,1003.41
2018-06-07T01:39:31.294Z,1003.44
2018-06-07T01:40:31.297Z,1003.42
2018-06-07T01:41:31.303Z,1003.43
2018-06-07T01:42:31.308Z,1003.42
2018-06-07T01:43:31.313Z,1003.45
2018-06-07T01:44:31.318Z,1003.48
2018-06-07T01:45:31.322Z,1003.49
2018-06-07T01:46:31.327Z,1003.49
2018-06-07T01:47:31.333Z,1003.52
2018-06-07T01:48:31.343Z,1003.49
2018-06-07T01:49:31.342Z,1003.52
2018-06-07T01:50:31.348Z,1003.56
2018-06-07T01:51:31.353Z,1003.55
2018-06-07T01:52:31.356Z,1003.56
2018-06-07T01:53:31.363Z,1003.58
2018-06-07T01:54:31.367Z,1003.55
2018-06-07T01:55:31.372Z,1003.56
2018-06-07T01:56:31.375Z,1003.56
2018-06-07T01:57:31.381Z,1003.58
2018-06-07T01:58:31.385Z,1003.59
2018-06-07T01:59:31.391Z,1003.59
2018-06-07T02:00:31.394Z,1003.59
2018-06-07T02:01:31.399Z,1003.56
2018-06-07T02:02:31.404Z,1003.52
2018-06-07T02:03:31.412Z,1003.54
2018-06-07T02:04:31.413Z,1003.54
2018-06-07T02:05:31.417Z,1003.51
2018-06-07T02:06:31.425Z,1003.50
2018-06-07T02:07:31.428Z,1003.48
2018-06-07T02:08:31.432Z,1003.47
2018-06-07T02:09:31.438Z,1003.48
2018-06-07T02:10:31.441Z,1003.45
2018-06-07T02:11:31.447Z,1003.47
2018-06-07T02:12:31.451Z,1003.49
2018-06-07T02:13:31.455Z,1003.49
2018-06-07T02:14:31.461Z,1003.44
2018-06-07T02:15:31.465Z,1003.43
2018-06-07T02:16:31.468Z,1003.41
2018-06-07T02:17:31.475Z,1003.43
2018-06-07T02:18:31.478Z,1003.38
2018-06-07T02:19:31.483Z,1003.40
2018-06-07T02:20:31.487Z,1003.38
2018-06-07T02:21:31.492Z,1003.37
2018-06-07T02:22:31.497Z,1003.35
2018-06-07T02:23:31.502Z,1003.33
2018-06-07T02:24:31.505Z,1003.37
2018-06-07T02:25:31.510Z,1003.34
2018-06-07T02:26:31.514Z,1003.33
2018-06-07T02:27:31.519Z,1003.34
2018-06-07T02:28:31.522Z,1003.37
2018-06-07T02:29:31.528Z,1003.36
2018-06-07T02:30:31.532Z,1003.35
2018-06-07T02:31:31.543Z,1003.39
2018-06-07T02:32:31.541Z,1003.37
2018-06-07T02:33:31.546Z,1003.45
2018-06-07T02:34:31.550Z,1003.40
2018-06-07T02:35:31.555Z,1003.40
2018-06-07T02:36:31.560Z,1003.38
2018-06-07T02:37:31.561Z,1003.40
2018-06-07T02:38:31.568Z,1003.36
2018-06-07T02:39:31.572Z,1003.42
2018-06-07T02:40:31.575Z,1003.39
2018-06-07T02:41:31.581Z,1003.39
2018-06-07T02:42:31.585Z,1003.39
2018-06-07T02:43:31.589Z,1003.43
2018-06-07T02:44:31.593Z,1003.40
2018-06-07T02:45:31.597Z,1003.44
2018-06-07T02:46:31.602Z,1003.42
2018-06-07T02:47:31.607Z,1003.41
2018-06-07T02:48:31.609Z,1003.43
2018-06-07T02:49:31.615Z,1003.44
2018-06-07T02:50:31.620Z,1003.43
2018-06-07T02:51:31.623Z,1003.41
2018-06-07T02:52:31.627Z,1003.45
2018-06-07T02:53:31.631Z,1003.47
2018-06-07T02:54:31.636Z,1003.47
2018-06-07T02:55:31.640Z,1003.44
2018-06-07T02:56:31.644Z,1003.49
2018-06-07T02:57:31.648Z,1003.48
2018-06-07T02:58:31.654Z,1003.51
2018-06-07T02:59:31.659Z,1003.51
2018-06-07T03:00:31.660Z,1003.51
2018-06-07T03:01:31.666Z,1003.51
2018-06-07T03:02:31.668Z,1003.52
2018-06-07T03:03:31.673Z,1003.53
2018-06-07T03:04:31.677Z,1003.54
2018-06-07T03:05:31.681Z,1003.53
2018-06-07T03:06:31.686Z,1003.57
2018-06-07T03:07:31.690Z,1003.55
2018-06-07T03:08:31.693Z,1003.57
2018-06-07T03:09:31.700Z,1003.56
2018-06-07T03:10:31.702Z,1003.56
2018-06-07T03:11:31.706Z,1003.59
2018-06-07T03:12:31.710Z,1003.60
2018-06-07T03:13:31.715Z,1003.55
2018-06-07T03:14:31.719Z,1003.60
2018-06-07T03:15:31.722Z,1003.59
2018-06-07T03:16:31.727Z,1003.60
2018-06-07T03:17:31.730Z,1003.58
2018-06-07T03:18:31.734Z,1003.58
2018-06-07T03:19:31.738Z,1003.54
2018-06-07T03:20:31.742Z,1003.56
2018-06-07T03:21:31.746Z,1003.58
2018-06-07T03:22:31.750Z,1003.60
2018-06-07T03:23:31.754Z,1003.57
2018-06-07T03:24:31.755Z,1003.59
2018-06-07T03:25:31.762Z,1003.60
2018-06-07T03:26:31.765Z,1003.59
2018-06-07T03:27:31.770Z,1003.58
2018-06-07T03:28:31.778Z,1003.58
2018-06-07T03:29:31.777Z,1003.59
2018-06-07T03:30:31.781Z,1003.59
2018-06-07T03:31:31.853Z,1003.60
2018-06-07T03:32:31.788Z,1003.61
2018-06-07T03:33:31.793Z,1003.60
2018-06-07T03:34:31.796Z,1003.57
2018-06-07T03:35:31.801Z,1003.59
2018-06-07T03:36:31.805Z,1003.58
2018-06-07T03:37:31.808Z,1003.64
2018-06-07T03:38:31.812Z,1003.64
2018-06-07T03:39:31.817Z,1003.64
2018-06-07T03:40:31.820Z,1003.67
2018-06-07T03:41:31.824Z,1003.68
2018-06-07T03:42:31.831Z,1003.71
2018-06-07T03:43:31.832Z,1003.70
2018-06-07T03:44:31.837Z,1003.71
2018-06-07T03:45:31.839Z,1003.68
2018-06-07T03:46:31.843Z,1003.67
2018-06-07T03:47:31.850Z,1003.67
2018-06-07T03:48:31.850Z,1003.67
2018-06-07T03:49:31.854Z,1003.68
2018-06-07T03:50:31.859Z,1003.66
2018-06-07T03:51:31.862Z,1003.65
2018-06-07T03:52:31.865Z,1003.69
2018-06-07T03:53:31.869Z,1003.64
2018-06-07T03:54:31.874Z,1003.65
2018-06-07T03:55:31.878Z,1003.63
2018-06-07T03:56:31.883Z,1003.66
2018-06-07T03:57:31.885Z,1003.68
2018-06-07T03:58:31.891Z,1003.63
2018-06-07T03:59:31.892Z,1003.64
2018-06-07T04:00:31.896Z,1003.60
2018-06-07T04:01:31.900Z,1003.63
2018-06-07T04:02:31.907Z,1003.62
2018-06-07T04:03:31.907Z,1003.60
2018-06-07T04:04:31.911Z,1003.61
2018-06-07T04:05:31.916Z,1003.61
2018-06-07T04:06:31.919Z,1003.67
2018-06-07T04:07:31.924Z,1003.65
2018-06-07T04:08:31.926Z,1003.63
2018-06-07T04:09:31.934Z,1003.68
2018-06-07T04:10:31.935Z,1003.65
2018-06-07T04:11:31.936Z,1003.69
2018-06-07T04:12:31.941Z,1003.67
2018-06-07T04:13:31.944Z,1003.68
2018-06-07T04:14:31.949Z,1003.66
2018-06-07T04:15:31.953Z,1003.68
2018-06-07T04:16:31.956Z,1003.70
2018-06-07T04:17:31.962Z,1003.71
2018-06-07T04:18:31.964Z,1003.73
2018-06-07T04:19:31.967Z,1003.73
2018-06-07T04:20:31.971Z,1003.74
2018-06-07T04:21:31.975Z,1003.77
2018-06-07T04:22:31.979Z,1003.75
2018-06-07T04:23:31.984Z,1003.76
2018-06-07T04:24:31.987Z,1003.80
2018-06-07T04:25:31.992Z,1003.80
2018-06-07T04:26:31.995Z,1003.83
2018-06-07T04:27:32.000Z,1003.81
2018-06-07T04:28:32.002Z,1003.82
2018-06-07T04:29:32.008Z,1003.87
2018-06-07T04:30:32.011Z,1003.87
2018-06-07T04:31:32.016Z,1003.89
2018-06-07T04:32:32.019Z,1003.93
2018-06-07T04:33:32.024Z,1003.94
2018-06-07T04:34:32.028Z,1003.90
2018-06-07T04:35:32.032Z,1003.93
2018-06-07T04:36:32.036Z,1003.93
2018-06-07T04:37:32.040Z,1003.97
2018-06-07T04:38:32.045Z,1003.99
2018-06-07T04:39:32.049Z,1003.98
2018-06-07T04:40:32.054Z,1003.98
2018-06-07T04:41:32.056Z,1004.03
2018-06-07T04:42:32.063Z,1004.01
2018-06-07T04:43:32.066Z,1004.09
2018-06-07T04:44:32.069Z,1004.15
2018-06-07T04:45:32.074Z,1004.18
2018-06-07T04:46:32.088Z,1004.19
2018-06-07T04:47:32.084Z,1004.27
2018-06-07T04:48:32.087Z,1004.27
2018-06-07T04:49:32.093Z,1004.31
2018-06-07T04:50:32.096Z,1004.24
2018-06-07T04:51:32.100Z,1004.21
2018-06-07T04:52:32.104Z,1004.22
2018-06-07T04:53:32.110Z,1004.14
2018-06-07T04:54:32.113Z,1004.14
2018-06-07T04:55:32.118Z,1004.15
2018-06-07T04:56:32.122Z,1004.16
2018-06-07T04:57:32.129Z,1004.22
2018-06-07T04:58:32.131Z,1004.26
2018-06-07T04:59:32.136Z,1004.30
2018-06-07T05:00:32.190Z,1004.34
2018-06-07T05:01:32.145Z,1004.38
2018-06-07T05:02:32.150Z,1004.34
2018-06-07T05:03:32.154Z,1004.31
2018-06-07T05:04:32.160Z,1004.33
2018-06-07T05:05:32.164Z,1004.30
2018-06-07T05:06:32.200Z,1004.28
2018-06-07T05:07:32.174Z,1004.24
2018-06-07T05:08:32.178Z,1004.26
2018-06-07T05:09:32.186Z,1004.30
2018-06-07T05:10:32.187Z,1004.28
2018-06-07T05:11:32.193Z,1004.30
2018-06-07T05:12:32.197Z,1004.32
2018-06-07T05:13:32.202Z,1004.37
2018-06-07T05:14:32.207Z,1004.39
2018-06-07T05:15:32.213Z,1004.50
2018-06-07T05:16:32.216Z,1004.77
2018-06-07T05:17:32.222Z,1004.93
2018-06-07T05:18:32.227Z,1004.79
2018-06-07T05:19:32.232Z,1004.96
2018-06-07T05:20:32.238Z,1004.85
2018-06-07T05:21:32.244Z,1004.57
2018-06-07T05:22:32.250Z,1004.47
2018-06-07T05:23:32.256Z,1004.49
2018-06-07T05:24:32.262Z,1004.50
2018-06-07T05:25:32.270Z,1004.57
2018-06-07T05:26:32.276Z,1004.62
2018-06-07T05:27:32.281Z,1004.62
2018-06-07T05:28:32.288Z,1004.91
2018-06-07T05:29:32.308Z,1004.94
2018-06-07T05:30:32.301Z,1004.79
2018-06-07T05:31:32.310Z,1004.67
2018-06-07T05:32:32.315Z,1004.60
2018-06-07T05:33:32.321Z,1004.52
2018-06-07T05:34:32.329Z,1004.53
2018-06-07T05:35:32.337Z,1004.58
2018-06-07T05:36:32.345Z,1004.54
2018-06-07T05:37:32.352Z,1004.56
2018-06-07T05:38:32.359Z,1004.60
2018-06-07T05:39:32.368Z,1004.62
2018-06-07T05:40:32.376Z,1004.60
2018-06-07T05:41:32.384Z,1004.59
2018-06-07T05:42:32.393Z,1004.59
2018-06-07T05:43:32.404Z,1004.60
2018-06-07T05:44:32.450Z,1004.57
2018-06-07T05:45:32.417Z,1004.60
2018-06-07T05:46:32.426Z,1004.60
2018-06-07T05:47:32.434Z,1004.63
2018-06-07T05:48:32.441Z,1004.63
2018-06-07T05:49:32.450Z,1004.57
2018-06-07T05:50:32.458Z,1004.60
2018-06-07T05:51:32.467Z,1004.58
2018-06-07T05:52:32.475Z,1004.58
2018-06-07T05:53:32.481Z,1004.58
2018-06-07T05:54:32.490Z,1004.60
2018-06-07T05:55:32.498Z,1004.60
2018-06-07T05:56:32.505Z,1004.60
2018-06-07T05:57:32.539Z,1004.66
2018-06-07T05:58:32.521Z,1004.68
2018-06-07T05:59:32.529Z,1004.71
2018-06-07T06:00:32.538Z,1004.69
2018-06-07T06:01:32.542Z,1004.65
2018-06-07T06:02:32.551Z,1004.68
2018-06-07T06:03:32.584Z,1004.69
2018-06-07T06:04:32.574Z,1004.72
2018-06-07T06:05:32.592Z,1004.73
2018-06-07T06:06:32.582Z,1004.74
2018-06-07T06:07:32.614Z,1004.72
2018-06-07T06:08:32.600Z,1004.67
2018-06-07T06:09:32.693Z,1004.69
2018-06-07T06:10:32.612Z,1004.72
2018-06-07T06:11:32.624Z,1004.70
2018-06-07T06:12:32.626Z,1004.74
2018-06-07T06:13:32.638Z,1004.74
2018-06-07T06:14:32.641Z,1004.74
2018-06-07T06:15:32.650Z,1004.74
2018-06-07T06:16:32.656Z,1004.76
2018-06-07T06:17:32.665Z,1004.76
2018-06-07T06:18:32.676Z,1004.75
2018-06-07T06:19:32.678Z,1004.77
2018-06-07T06:20:32.685Z,1004.76
2018-06-07T06:21:32.696Z,1004.77
2018-06-07T06:22:32.701Z,1004.76
2018-06-07T06:23:32.709Z,1004.78
2018-06-07T06:24:32.715Z,1004.72
2018-06-07T06:25:32.723Z,1004.75
2018-06-07T06:26:32.731Z,1004.75
2018-06-07T06:27:32.738Z,1004.75
2018-06-07T06:28:32.744Z,1004.74
2018-06-07T06:29:32.752Z,1004.72
2018-06-07T06:30:32.759Z,1004.71
2018-06-07T06:31:32.767Z,1004.70
2018-06-07T06:32:32.774Z,1004.73
2018-06-07T06:33:32.782Z,1004.71
2018-06-07T06:34:32.789Z,1004.73
2018-06-07T06:35:32.797Z,1004.72
2018-06-07T06:36:32.803Z,1004.75
2018-06-07T06:37:32.811Z,1004.76
2018-06-07T06:38:32.820Z,1004.72
2018-06-07T06:39:32.828Z,1004.73
2018-06-07T06:40:32.833Z,1004.76
2018-06-07T06:41:32.841Z,1004.73
2018-06-07T06:42:32.848Z,1004.76
2018-06-07T06:43:32.855Z,1004.77
2018-06-07T06:44:32.862Z,1004.78
2018-06-07T06:45:32.871Z,1004.77
2018-06-07T06:46:32.879Z,1004.76
2018-06-07T06:47:32.886Z,1004.77
2018-06-07T06:48:32.892Z,1004.74
2018-06-07T06:49:32.938Z,1004.72
2018-06-07T06:50:32.907Z,1004.69
2018-06-07T06:51:32.915Z,1004.67
2018-06-07T06:52:32.925Z,1004.68
2018-06-07T06:53:32.929Z,1004.65
2018-06-07T06:54:32.938Z,1004.67
2018-06-07T06:55:32.944Z,1004.65
2018-06-07T06:56:32.993Z,1004.63
2018-06-07T06:57:32.961Z,1004.63
2018-06-07T06:58:32.967Z,1004.68
2018-06-07T06:59:32.976Z,1004.65
2018-06-07T07:00:32.982Z,1004.62
2018-06-07T07:01:32.991Z,1004.65
2018-06-07T07:02:32.998Z,1004.64
2018-06-07T07:03:33.006Z,1004.61
2018-06-07T07:04:33.013Z,1004.65
2018-06-07T07:05:33.020Z,1004.64
2018-06-07T07:06:33.032Z,1004.60
2018-06-07T07:07:33.036Z,1004.60
2018-06-07T07:08:33.044Z,1004.61
2018-06-07T07:09:33.051Z,1004.63
2018-06-07T07:10:33.059Z,1004.60
2018-06-07T07:11:33.067Z,1004.57
2018-06-07T07:12:33.074Z,1004.58
2018-06-07T07:13:33.082Z,1004.53
2018-06-07T07:14:33.090Z,1004.62
2018-06-07T07:15:33.099Z,1004.66
2018-06-07T07:16:33.106Z,1004.63
2018-06-07T07:17:33.114Z,1004.63
2018-06-07T07:18:33.122Z,1004.66
2018-06-07T07:19:33.131Z,1004.69
2018-06-07T07:20:33.138Z,1004.68
2018-06-07T07:21:33.146Z,1004.67
2018-06-07T07:22:33.159Z,1004.72
2018-06-07T07:23:33.163Z,1004.73
2018-06-07T07:24:33.170Z,1004.73
2018-06-07T07:25:33.178Z,1004.75
2018-06-07T07:26:33.187Z,1004.77
2018-06-07T07:27:33.195Z,1004.79
2018-06-07T07:28:33.202Z,1004.91
2018-06-07T07:29:33.212Z,1005.02
2018-06-07T07:30:33.220Z,1005.05
2018-06-07T07:31:33.230Z,1005.01
2018-06-07T07:32:33.239Z,1005.03
2018-06-07T07:33:33.248Z,1004.95
2018-06-07T07:34:33.312Z,1004.91
2018-06-07T07:35:33.268Z,1004.98
2018-06-07T07:36:33.282Z,1005.03
2018-06-07T07:37:33.288Z,1005.15
2018-06-07T07:38:33.298Z,1005.17
2018-06-07T07:39:33.309Z,1005.15
2018-06-07T07:40:33.319Z,1005.28
2018-06-07T07:41:33.330Z,1005.28
2018-06-07T07:42:33.342Z,1005.29
2018-06-07T07:43:33.355Z,1005.39
2018-06-07T07:44:33.365Z,1005.41
2018-06-07T07:45:33.376Z,1005.49
2018-06-07T07:46:33.389Z,1005.56
2018-06-07T07:47:33.401Z,1005.48
2018-06-07T07:48:33.413Z,1005.72
2018-06-07T07:49:33.426Z,1005.73
2018-06-07T07:50:33.439Z,1005.69
2018-06-07T07:51:33.451Z,1005.70
2018-06-07T07:52:33.474Z,1005.71
2018-06-07T07:53:33.477Z,1005.71
2018-06-07T07:54:33.491Z,1005.61
2018-06-07T07:55:33.507Z,1005.55
2018-06-07T07:56:33.518Z,1005.69
2018-06-07T07:57:33.533Z,1005.67
2018-06-07T07:58:33.546Z,1005.72
2018-06-07T07:59:33.562Z,1005.76
2018-06-07T08:00:33.577Z,1005.78
2018-06-07T08:01:33.593Z,1005.77
2018-06-07T08:02:33.602Z,1005.80
2018-06-07T08:03:33.618Z,1005.77
2018-06-07T08:04:33.632Z,1005.76
2018-06-07T08:05:33.694Z,1005.72
2018-06-07T08:06:33.662Z,1005.69
2018-06-07T08:07:33.677Z,1005.66
2018-06-07T08:08:33.692Z,1005.67
2018-06-07T08:09:33.706Z,1005.71
2018-06-07T08:10:33.723Z,1005.66
2018-06-07T08:11:33.738Z,1005.65
2018-06-07T08:12:33.752Z,1005.65
2018-06-07T08:13:33.769Z,1005.65
2018-06-07T08:14:33.786Z,1005.69
2018-06-07T08:15:33.800Z,1005.69
2018-06-07T08:16:33.817Z,1005.61
2018-06-07T08:17:33.831Z,1005.62
2018-06-07T08:18:33.848Z,1005.61
2018-06-07T08:19:33.863Z,1005.58
2018-06-07T08:20:33.879Z,1005.62
2018-06-07T08:21:33.894Z,1005.59
2018-06-07T08:22:33.911Z,1005.59
2018-06-07T08:23:33.929Z,1005.52
2018-06-07T08:24:33.944Z,1005.50
2018-06-07T08:25:33.959Z,1005.43
2018-06-07T08:26:33.979Z,1005.34
2018-06-07T08:27:33.992Z,1005.33
2018-06-07T08:28:34.009Z,1005.25
2018-06-07T08:29:34.027Z,1005.27
2018-06-07T08:30:34.043Z,1005.28
2018-06-07T08:31:34.062Z,1005.29
2018-06-07T08:32:34.075Z,1005.29
2018-06-07T08:33:34.092Z,1005.30
2018-06-07T08:34:34.110Z,1005.31
2018-06-07T08:35:34.126Z,1005.33
2018-06-07T08:36:34.141Z,1005.35
2018-06-07T08:37:34.160Z,1005.38
2018-06-07T08:38:34.178Z,1005.37
2018-06-07T08:39:34.253Z,1005.38
2018-06-07T08:40:34.213Z,1005.38
2018-06-07T08:41:34.229Z,1005.41
2018-06-07T08:42:34.246Z,1005.39
2018-06-07T08:43:34.261Z,1005.36
2018-06-07T08:44:34.327Z,1005.39
2018-06-07T08:45:34.296Z,1005.40
2018-06-07T08:46:34.315Z,1005.43
2018-06-07T08:47:34.331Z,1005.42
2018-06-07T08:48:34.348Z,1005.47
2018-06-07T08:49:34.367Z,1005.47
2018-06-07T08:50:34.384Z,1005.35
2018-06-07T08:51:34.401Z,1005.30
2018-06-07T08:52:34.418Z,1005.38
2018-06-07T08:53:34.434Z,1005.50
2018-06-07T08:54:34.457Z,1005.44
2018-06-07T08:55:34.471Z,1005.47
2018-06-07T08:56:34.494Z,1005.46
2018-06-07T08:57:34.506Z,1005.48
2018-06-07T08:58:34.526Z,1005.48
2018-06-07T08:59:34.543Z,1005.50
2018-06-07T09:00:34.605Z,1005.48
2018-06-07T09:01:34.577Z,1005.48
2018-06-07T09:02:34.594Z,1005.49
2018-06-07T09:03:34.612Z,1005.44
2018-06-07T09:04:34.629Z,1005.48
2018-06-07T09:05:34.647Z,1005.51
2018-06-07T09:06:34.665Z,1005.48
2018-06-07T09:07:34.681Z,1005.51
2018-06-07T09:08:34.700Z,1005.52
2018-06-07T09:09:34.717Z,1005.53
2018-06-07T09:10:34.735Z,1005.49
2018-06-07T09:11:34.754Z,1005.50
2018-06-07T09:12:34.770Z,1005.45
2018-06-07T09:13:34.788Z,1005.48
2018-06-07T09:14:34.806Z,1005.48
2018-06-07T09:15:34.827Z,1005.46
2018-06-07T09:16:34.841Z,1005.50
2018-06-07T09:17:34.860Z,1005.47
2018-06-07T09:18:34.879Z,1005.50
2018-06-07T09:19:34.896Z,1005.53
2018-06-07T09:20:34.913Z,1005.53
2018-06-07T09:21:34.932Z,1005.48
2018-06-07T09:22:34.950Z,1005.50
2018-06-07T09:23:34.970Z,1005.54
2018-06-07T09:24:34.985Z,1005.50
2018-06-07T09:25:35.007Z,1005.51
2018-06-07T09:26:35.022Z,1005.57
2018-06-07T09:27:35.040Z,1005.55
2018-06-07T09:28:35.058Z,1005.59
2018-06-07T09:29:35.075Z,1005.55
2018-06-07T09:30:35.094Z,1005.57
2018-06-07T09:31:35.112Z,1005.57
2018-06-07T09:32:35.129Z,1005.61
2018-06-07T09:33:35.148Z,1005.61
2018-06-07T09:34:35.167Z,1005.62
2018-06-07T09:35:35.184Z,1005.54
2018-06-07T09:36:35.201Z,1005.56
2018-06-07T09:37:35.219Z,1005.54
2018-06-07T09:38:35.237Z,1005.53
2018-06-07T09:39:35.256Z,1005.61
2018-06-07T09:40:35.272Z,1005.63
2018-06-07T09:41:35.304Z,1005.62
2018-06-07T09:42:35.309Z,1005.60
2018-06-07T09:43:35.326Z,1005.58
2018-06-07T09:44:35.344Z,1005.59
2018-06-07T09:45:35.359Z,1005.60
2018-06-07T09:46:35.379Z,1005.64
2018-06-07T09:47:35.396Z,1005.64
2018-06-07T09:48:35.414Z,1005.64
2018-06-07T09:49:35.432Z,1005.60
2018-06-07T09:50:35.448Z,1005.58
2018-06-07T09:51:35.468Z,1005.61
2018-06-07T09:52:35.483Z,1005.58
2018-06-07T09:53:35.503Z,1005.57
2018-06-07T09:54:35.520Z,1005.58
2018-06-07T09:55:35.536Z,1005.59
2018-06-07T09:56:35.553Z,1005.61
2018-06-07T09:57:35.570Z,1005.59
2018-06-07T09:58:35.592Z,1005.60
2018-06-07T09:59:35.606Z,1005.59
2018-06-07T10:00:35.624Z,1005.63
2018-06-07T10:01:35.641Z,1005.64
2018-06-07T10:02:35.658Z,1005.63
2018-06-07T10:03:35.680Z,1005.64
2018-06-07T10:04:35.694Z,1005.65
2018-06-07T10:05:35.711Z,1005.63
2018-06-07T10:06:35.728Z,1005.62
2018-06-07T10:07:35.746Z,1005.60
2018-06-07T10:08:35.763Z,1005.59
2018-06-07T10:09:35.780Z,1005.61
2018-06-07T10:10:35.798Z,1005.63
2018-06-07T10:11:35.815Z,1005.58
2018-06-07T10:12:35.832Z,1005.58
2018-06-07T10:13:35.849Z,1005.60
2018-06-07T10:14:35.868Z,1005.61
2018-06-07T10:15:35.886Z,1005.62
2018-06-07T10:16:35.902Z,1005.60
2018-06-07T10:17:35.920Z,1005.63
2018-06-07T10:18:35.937Z,1005.60
2018-06-07T10:19:35.954Z,1005.62
2018-06-07T10:20:35.972Z,1005.62
2018-06-07T10:21:35.989Z,1005.59
2018-06-07T10:22:36.012Z,1005.57
2018-06-07T10:23:36.024Z,1005.55
2018-06-07T10:24:36.041Z,1005.52
2018-06-07T10:25:36.057Z,1005.57
2018-06-07T10:26:36.075Z,1005.52
2018-06-07T10:27:36.093Z,1005.54
2018-06-07T10:28:36.108Z,1005.62
2018-06-07T10:29:36.136Z,1005.54
2018-06-07T10:30:36.144Z,1005.57
2018-06-07T10:31:36.160Z,1005.56
2018-06-07T10:32:36.177Z,1005.53
2018-06-07T10:33:36.197Z,1005.51
2018-06-07T10:34:36.211Z,1005.50
2018-06-07T10:35:36.228Z,1005.48
2018-06-07T10:36:36.244Z,1005.47
2018-06-07T10:37:36.261Z,1005.49
2018-06-07T10:38:36.278Z,1005.49
2018-06-07T10:39:36.295Z,1005.49
2018-06-07T10:40:36.314Z,1005.52
2018-06-07T10:41:36.327Z,1005.52
2018-06-07T10:42:36.345Z,1005.52
2018-06-07T10:43:36.361Z,1005.51
2018-06-07T10:44:36.378Z,1005.48
2018-06-07T10:45:36.396Z,1005.52
2018-06-07T10:46:36.412Z,1005.53
2018-06-07T10:47:36.440Z,1005.52
2018-06-07T10:48:36.444Z,1005.53
2018-06-07T10:49:36.460Z,1005.48
2018-06-07T10:50:36.478Z,1005.52
2018-06-07T10:51:36.494Z,1005.48
2018-06-07T10:52:36.508Z,1005.54
2018-06-07T10:53:36.526Z,1005.52
2018-06-07T10:54:36.543Z,1005.53
2018-06-07T10:55:36.559Z,1005.51
2018-06-07T10:56:36.576Z,1005.50
2018-06-07T10:57:36.591Z,1005.49
2018-06-07T10:58:36.608Z,1005.45
2018-06-07T10:59:36.624Z,1005.47
2018-06-07T11:00:36.639Z,1005.45
2018-06-07T11:01:36.655Z,1005.45
2018-06-07T11:02:36.675Z,1005.42
2018-06-07T11:03:36.688Z,1005.42
2018-06-07T11:04:36.704Z,1005.38
2018-06-07T11:05:36.720Z,1005.36
2018-06-07T11:06:36.736Z,1005.34
2018-06-07T11:07:36.752Z,1005.39
2018-06-07T11:08:36.767Z,1005.33
2018-06-07T11:09:36.784Z,1005.32
2018-06-07T11:10:36.799Z,1005.28
2018-06-07T11:11:36.815Z,1005.34
2018-06-07T11:12:36.830Z,1005.30
2018-06-07T11:13:36.845Z,1005.20
2018-06-07T11:14:36.897Z,1005.08
2018-06-07T11:15:36.878Z,1004.96
2018-06-07T11:16:36.891Z,1004.94
2018-06-07T11:17:36.907Z,1005.02
2018-06-07T11:18:36.923Z,1005.07
2018-06-07T11:19:36.942Z,1005.04
2018-06-07T11:20:36.952Z,1005.05
2018-06-07T11:21:36.968Z,1005.03
2018-06-07T11:22:36.983Z,1005.04
2018-06-07T11:23:36.999Z,1004.94
2018-06-07T11:24:37.015Z,1004.91
2018-06-07T11:25:37.029Z,1004.94
2018-06-07T11:26:37.042Z,1004.89
2018-06-07T11:27:37.058Z,1004.91
2018-06-07T11:28:37.072Z,1004.85
2018-06-07T11:29:37.089Z,1004.89
2018-06-07T11:30:37.101Z,1004.85
2018-06-07T11:31:37.116Z,1004.82
2018-06-07T11:32:37.132Z,1004.84
2018-06-07T11:33:37.144Z,1004.90
2018-06-07T11:34:37.158Z,1004.83
2018-06-07T11:35:37.175Z,1004.87
2018-06-07T11:36:37.187Z,1004.82
2018-06-07T11:37:37.201Z,1004.83
2018-06-07T11:38:37.215Z,1004.82
2018-06-07T11:39:37.229Z,1004.83
2018-06-07T11:40:37.243Z,1004.77
2018-06-07T11:41:37.256Z,1004.75
2018-06-07T11:42:37.271Z,1004.76
2018-06-07T11:43:37.284Z,1004.73
2018-06-07T11:44:37.298Z,1004.74
2018-06-07T11:45:37.311Z,1004.73
2018-06-07T11:46:37.325Z,1004.75
2018-06-07T11:47:37.339Z,1004.70
2018-06-07T11:48:37.352Z,1004.73
2018-06-07T11:49:37.366Z,1004.69
2018-06-07T11:50:37.378Z,1004.67
2018-06-07T11:51:37.391Z,1004.68
2018-06-07T11:52:37.405Z,1004.66
2018-06-07T11:53:37.419Z,1004.62
2018-06-07T11:54:37.434Z,1004.66
2018-06-07T11:55:37.447Z,1004.66
2018-06-07T11:56:37.459Z,1004.68
2018-06-07T11:57:37.472Z,1004.66
2018-06-07T11:58:37.487Z,1004.66
2018-06-07T11:59:37.500Z,1004.66
2018-06-07T12:00:37.512Z,1004.68
2018-06-07T12:01:37.557Z,1004.66
2018-06-07T12:02:37.540Z,1004.65
2018-06-07T12:03:37.551Z,1004.65
2018-06-07T12:04:37.562Z,1004.65
2018-06-07T12:05:37.577Z,1004.64